Terminal Aerodrome Forecast
Issued by NWS Topeka, KS

Home | Current Version | Previous Version | Graphics & Text | Print | Product List | Glossary On
Versions: 1 2 3 4 5 6 7 8 9 10 11 12 13 14 15 16 17 18
000
FTUS43 KTOP 311136
TAFTOP
TAF
KTOP 311136Z 3112/0112 00000KT 2SM BR SCT015
      TEMPO 3112/3114 1/4SM FG VV003
     FM311500 17009KT P6SM FEW030=

USA.gov is the U.S. government's official web portal to all federal, state and local government web resources and services.